Time;durP1;ratioP1;P1;durP2;ratioP2;P2;SDS_P1;SDS_P2;PMS_P1;PMS_P2;Temp;Humidity;BMP_temperature;BMP_pressure;BME280_temperature;BME280_humidity;BME280_pressure;Samples;Min_cycle;Max_cycle;Signal;HPM_P1;HPM_P2
2021/04/18 00:00:53;;;;;;;2.67;1.90;;;22.60;28.80;;;;;;5109425;28;20203;-53
2021/04/18 00:03:19;;;;;;;1.47;1.37;;;22.60;28.70;;;;;;5110024;28;20207;-51
2021/04/18 00:05:45;;;;;;;1.80;1.53;;;22.70;28.80;;;;;;5109980;28;20202;-52
2021/04/18 00:08:11;;;;;;;1.97;1.50;;;22.70;28.70;;;;;;5110887;28;20747;-53
2021/04/18 00:10:38;;;;;;;2.33;1.70;;;22.70;28.80;;;;;;5103858;28;20223;-50
2021/04/18 00:13:04;;;;;;;1.70;1.60;;;22.70;28.80;;;;;;5109077;28;20221;-55
2021/04/18 00:15:30;;;;;;;1.63;1.53;;;22.70;28.80;;;;;;5108728;28;20200;-56
2021/04/18 00:17:56;;;;;;;1.70;1.60;;;22.70;28.80;;;;;;5110870;28;20219;-53
2021/04/18 00:20:22;;;;;;;2.80;1.70;;;22.70;28.80;;;;;;5108542;28;20258;-52
2021/04/18 00:22:48;;;;;;;3.50;1.73;;;22.70;28.80;;;;;;5111518;28;20206;-52
2021/04/18 00:25:14;;;;;;;1.70;1.60;;;22.70;28.80;;;;;;5109025;28;20207;-53
2021/04/18 00:27:40;;;;;;;1.50;1.40;;;22.70;28.80;;;;;;5113847;28;20224;-52
2021/04/18 00:30:06;;;;;;;1.77;1.60;;;22.70;28.70;;;;;;5113372;28;20214;-53
2021/04/18 00:32:32;;;;;;;1.97;1.70;;;22.70;28.80;;;;;;5114923;28;20228;-54
2021/04/18 00:34:58;;;;;;;1.87;1.77;;;22.70;28.70;;;;;;5112794;28;20587;-52
2021/04/18 00:37:24;;;;;;;2.13;1.73;;;22.70;28.70;;;;;;5113320;28;20199;-54
2021/04/18 00:39:50;;;;;;;1.40;1.30;;;22.70;28.80;;;;;;5121075;22;20603;-56
2021/04/18 00:42:16;;;;;;;1.93;1.73;;;22.70;28.70;;;;;;5091934;28;20211;-59
2021/04/18 00:44:42;;;;;;;1.90;1.70;;;22.70;28.70;;;;;;5092812;28;20543;-58
2021/04/18 00:47:08;;;;;;;1.67;1.57;;;22.60;28.70;;;;;;5093401;28;20200;-59
2021/04/18 00:49:34;;;;;;;1.57;1.30;;;22.70;28.70;;;;;;5092619;28;20197;-55
2021/04/18 00:52:00;;;;;;;1.60;1.50;;;22.70;28.70;;;;;;5091648;28;20230;-57
2021/04/18 00:54:26;;;;;;;2.00;1.80;;;22.70;29.30;;;;;;5091373;28;20632;-57
2021/04/18 00:56:52;;;;;;;1.83;1.70;;;22.70;28.70;;;;;;5091700;28;20207;-56
2021/04/18 00:59:18;;;;;;;1.60;1.50;;;22.60;28.70;;;;;;5094011;28;20212;-56
2021/04/18 01:01:44;;;;;;;1.77;1.67;;;22.70;29.30;;;;;;5092284;28;20203;-58
2021/04/18 01:04:10;;;;;;;2.23;1.87;;;22.60;28.60;;;;;;5093522;28;20196;-58
2021/04/18 01:06:36;;;;;;;2.27;1.63;;;22.60;28.70;;;;;;5090760;28;20203;-54
2021/04/18 01:09:02;;;;;;;1.80;1.67;;;22.60;28.70;;;;;;5093698;28;20251;-58
2021/04/18 01:11:28;;;;;;;1.63;1.53;;;22.60;28.70;;;;;;5091691;28;20598;-59
2021/04/18 01:13:54;;;;;;;1.50;1.40;;;22.60;28.70;;;;;;5092662;28;20204;-56
2021/04/18 01:16:20;;;;;;;1.70;1.60;;;22.60;28.70;;;;;;5091256;28;20200;-58
2021/04/18 01:18:46;;;;;;;1.73;1.63;;;22.60;28.70;;;;;;5092806;28;20224;-58
2021/04/18 01:21:12;;;;;;;2.47;1.70;;;22.70;28.70;;;;;;5091257;28;20602;-58
2021/04/18 01:23:38;;;;;;;1.83;1.73;;;22.60;28.60;;;;;;5091040;28;20200;-56
2021/04/18 01:26:04;;;;;;;1.40;1.30;;;22.60;28.70;;;;;;5091915;28;20203;-55
2021/04/18 01:28:32;;;;;;;1.73;1.50;;;22.70;28.70;;;;;;5092859;28;20227;-55
2021/04/18 01:30:58;;;;;;;1.60;1.50;;;22.60;28.60;;;;;;5091810;28;20228;-55
2021/04/18 01:33:24;;;;;;;1.70;1.60;;;22.60;28.60;;;;;;5091101;28;20257;-57
2021/04/18 01:35:50;;;;;;;1.50;1.40;;;22.60;28.70;;;;;;5091031;28;20203;-55
2021/04/18 01:38:16;;;;;;;1.97;1.80;;;22.60;28.70;;;;;;5091622;28;20215;-57
2021/04/18 01:40:43;;;;;;;2.27;1.70;;;22.60;28.60;;;;;;5090519;28;20219;-56
2021/04/18 01:43:09;;;;;;;1.57;1.47;;;22.70;28.70;;;;;;5091505;28;20210;-60
2021/04/18 01:45:35;;;;;;;2.20;1.87;;;22.60;28.70;;;;;;5092858;28;20223;-55
2021/04/18 01:48:01;;;;;;;2.07;1.60;;;22.60;28.70;;;;;;5090812;28;20702;-59
2021/04/18 01:50:27;;;;;;;1.70;1.60;;;22.60;28.60;;;;;;5092389;28;20231;-61
2021/04/18 01:52:53;;;;;;;1.67;1.57;;;22.60;28.60;;;;;;5091618;28;20195;-60
2021/04/18 01:55:19;;;;;;;1.90;1.80;;;22.60;28.70;;;;;;5092291;28;20203;-60
2021/04/18 01:57:45;;;;;;;2.13;1.77;;;22.60;28.60;;;;;;5090361;28;20216;-57
2021/04/18 02:00:11;;;;;;;1.73;1.60;;;22.60;28.70;;;;;;5092800;28;20200;-57
2021/04/18 02:02:37;;;;;;;1.30;1.30;;;22.60;29.10;;;;;;5090550;28;20208;-62
2021/04/18 02:05:03;;;;;;;1.90;1.70;;;22.60;28.60;;;;;;5090835;28;20336;-61
2021/04/18 02:07:29;;;;;;;2.00;1.80;;;22.60;28.60;;;;;;5090418;28;20253;-61
2021/04/18 02:09:55;;;;;;;2.20;1.73;;;22.60;28.70;;;;;;5092288;28;20709;-55
2021/04/18 02:12:21;;;;;;;2.20;2.00;;;22.60;28.60;;;;;;5088047;28;20231;-56
2021/04/18 02:14:47;;;;;;;2.77;1.80;;;22.60;28.60;;;;;;5086896;28;20211;-59
2021/04/18 02:17:13;;;;;;;2.03;1.60;;;22.60;28.60;;;;;;5090645;28;20675;-59
2021/04/18 02:19:39;;;;;;;1.93;1.70;;;22.60;28.60;;;;;;5083596;28;20206;-55
2021/04/18 02:22:05;;;;;;;2.97;1.50;;;22.60;28.70;;;;;;5091056;28;20528;-58
2021/04/18 02:24:31;;;;;;;1.70;1.60;;;22.60;29.20;;;;;;5090338;28;20216;-58
2021/04/18 02:26:57;;;;;;;1.80;1.70;;;22.70;28.80;;;;;;5090535;28;20216;-58
2021/04/18 02:29:22;;;;;;;2.10;1.90;;;22.70;28.70;;;;;;5090012;28;20207;-58
2021/04/18 02:31:48;;;;;;;1.83;1.73;;;22.60;28.60;;;;;;5091203;28;20228;-58
2021/04/18 02:34:14;;;;;;;2.00;1.60;;;22.70;28.80;;;;;;5090816;28;20836;-55
2021/04/18 02:36:40;;;;;;;1.60;1.50;;;22.60;28.60;;;;;;5090571;28;20299;-58
2021/04/18 02:39:06;;;;;;;2.30;2.03;;;22.60;28.60;;;;;;5088212;28;20207;-58
2021/04/18 02:41:32;;;;;;;1.60;1.50;;;22.60;28.60;;;;;;5091608;28;20207;-59
2021/04/18 02:43:58;;;;;;;1.90;1.70;;;22.70;28.70;;;;;;5090486;28;20227;-59
2021/04/18 02:46:24;;;;;;;1.50;1.40;;;22.70;28.70;;;;;;5091312;28;20693;-57
2021/04/18 02:48:50;;;;;;;1.83;1.73;;;22.60;28.70;;;;;;5090609;28;20211;-58
2021/04/18 02:51:16;;;;;;;2.07;1.87;;;22.60;28.70;;;;;;5088623;28;20231;-58
2021/04/18 02:53:42;;;;;;;1.63;1.50;;;22.60;28.70;;;;;;5092088;28;20214;-58
2021/04/18 02:56:08;;;;;;;2.87;1.50;;;22.60;28.80;;;;;;5089158;28;20562;-59
2021/04/18 02:58:34;;;;;;;2.17;1.60;;;22.60;28.70;;;;;;5075276;28;20228;-58
2021/04/18 03:01:00;;;;;;;1.57;1.47;;;22.60;28.70;;;;;;5090284;28;20211;-58
2021/04/18 03:03:26;;;;;;;1.90;1.80;;;22.60;28.70;;;;;;5091112;28;20200;-59
2021/04/18 03:05:52;;;;;;;1.97;1.80;;;22.60;28.80;;;;;;5088586;28;20208;-58
2021/04/18 03:08:18;;;;;;;1.90;1.50;;;22.60;28.70;;;;;;5090617;28;20634;-55
2021/04/18 03:10:44;;;;;;;2.50;1.90;;;22.60;28.70;;;;;;5089525;28;20268;-58
2021/04/18 03:13:10;;;;;;;1.60;1.50;;;22.60;28.70;;;;;;5090939;28;20193;-56
2021/04/18 03:15:36;;;;;;;1.87;1.77;;;22.60;28.90;;;;;;5089010;28;20208;-54
2021/04/18 03:18:02;;;;;;;1.60;1.50;;;22.60;28.90;;;;;;5090853;28;20224;-58
2021/04/18 03:20:28;;;;;;;2.70;1.60;;;22.60;28.80;;;;;;5089512;28;20196;-57
2021/04/18 03:22:54;;;;;;;2.57;1.60;;;22.60;28.80;;;;;;5090862;28;20214;-58
2021/04/18 03:25:20;;;;;;;2.13;1.57;;;22.60;28.80;;;;;;5089741;28;20207;-59
2021/04/18 03:27:46;;;;;;;2.10;1.87;;;22.60;28.80;;;;;;5090095;28;20212;-56
2021/04/18 03:30:12;;;;;;;2.50;1.63;;;22.60;28.80;;;;;;5089756;28;20204;-58
2021/04/18 03:32:38;;;;;;;3.22;1.83;;;22.60;28.90;;;;;;5089778;28;20588;-53
2021/04/18 03:35:04;;;;;;;2.30;1.57;;;22.60;28.80;;;;;;5088923;28;20246;-57
2021/04/18 03:37:30;;;;;;;2.03;1.83;;;22.60;28.80;;;;;;5088607;28;20220;-55
2021/04/18 03:39:56;;;;;;;1.53;1.43;;;22.60;28.80;;;;;;5089654;28;20232;-59
2021/04/18 03:42:22;;;;;;;2.10;1.90;;;22.70;28.90;;;;;;5088896;28;20659;-57
2021/04/18 03:44:48;;;;;;;2.03;1.70;;;22.70;28.80;;;;;;5090232;28;20211;-59
2021/04/18 03:47:14;;;;;;;2.75;1.67;;;22.70;28.80;;;;;;5088666;28;20234;-58
2021/04/18 03:49:40;;;;;;;3.30;1.60;;;22.70;28.90;;;;;;5088774;28;20206;-55
2021/04/18 03:52:06;;;;;;;2.80;1.70;;;22.60;28.80;;;;;;5089848;28;20220;-58
2021/04/18 03:54:32;;;;;;;1.60;1.50;;;22.60;28.80;;;;;;5089535;28;20643;-59
2021/04/18 03:56:58;;;;;;;1.67;1.57;;;22.60;28.70;;;;;;5088565;28;20264;-58
2021/04/18 03:59:24;;;;;;;2.65;1.75;;;22.70;28.80;;;;;;5089421;28;20204;-57
2021/04/18 04:01:50;;;;;;;2.30;1.50;;;22.60;28.70;;;;;;5089979;28;20195;-58
2021/04/18 04:04:16;;;;;;;1.80;1.60;;;22.60;28.70;;;;;;5088869;28;20261;-56
2021/04/18 04:06:42;;;;;;;1.55;1.45;;;22.60;28.80;;;;;;5088557;28;20220;-57
2021/04/18 04:09:08;;;;;;;1.50;1.40;;;22.60;28.70;;;;;;5088621;28;20550;-57
2021/04/18 04:11:34;;;;;;;1.53;1.43;;;22.60;28.70;;;;;;5090670;28;20265;-56
2021/04/18 04:14:00;;;;;;;1.57;1.47;;;22.70;28.80;;;;;;5084886;28;20200;-58
2021/04/18 04:16:26;;;;;;;1.83;1.73;;;22.60;28.80;;;;;;5088062;28;20252;-58
2021/04/18 04:18:52;;;;;;;1.97;1.70;;;22.70;28.90;;;;;;5090071;28;20200;-57
2021/04/18 04:21:18;;;;;;;1.40;1.30;;;22.60;28.80;;;;;;5088800;28;20204;-57
2021/04/18 04:23:44;;;;;;;1.67;1.43;;;22.60;28.80;;;;;;5090201;28;20203;-56
2021/04/18 04:26:10;;;;;;;1.55;1.45;;;22.60;28.80;;;;;;5088208;28;20572;-57
2021/04/18 04:28:36;;;;;;;2.13;1.50;;;22.60;28.80;;;;;;5089801;28;20204;-58
2021/04/18 04:31:02;;;;;;;1.63;1.50;;;22.60;28.80;;;;;;5089958;28;20277;-56
2021/04/18 04:33:28;;;;;;;1.90;1.60;;;22.60;28.80;;;;;;5089426;28;20223;-58
2021/04/18 04:35:54;;;;;;;1.60;1.50;;;22.60;28.80;;;;;;5088634;28;20215;-56
2021/04/18 04:38:20;;;;;;;1.60;1.50;;;22.60;28.80;;;;;;5087253;28;20221;-59
2021/04/18 04:40:46;;;;;;;1.70;1.60;;;22.70;28.90;;;;;;5090082;28;20559;-56
2021/04/18 04:43:12;;;;;;;1.67;1.57;;;22.60;28.80;;;;;;5088885;28;20199;-57
2021/04/18 04:45:38;;;;;;;1.50;1.40;;;22.60;28.80;;;;;;5088406;28;20202;-56
2021/04/18 04:48:04;;;;;;;2.57;1.83;;;22.60;28.70;;;;;;5087198;28;20217;-54
2021/04/18 04:50:30;;;;;;;1.83;1.53;;;22.60;28.70;;;;;;5089450;28;20291;-53
2021/04/18 04:52:56;;;;;;;1.73;1.47;;;22.60;28.70;;;;;;5089207;28;20200;-57
2021/04/18 04:55:22;;;;;;;1.63;1.53;;;22.60;28.80;;;;;;5089766;28;20201;-56
2021/04/18 04:57:48;;;;;;;2.00;1.70;;;22.60;28.80;;;;;;5085910;28;20225;-59
2021/04/18 05:00:14;;;;;;;1.40;1.30;;;22.70;28.80;;;;;;5089544;28;20324;-59
2021/04/18 05:02:40;;;;;;;1.97;1.43;;;22.70;28.80;;;;;;5089086;28;20238;-61
2021/04/18 05:05:06;;;;;;;1.57;1.47;;;22.70;28.80;;;;;;5089178;28;20243;-57
2021/04/18 05:07:32;;;;;;;2.47;1.60;;;22.70;28.80;;;;;;5088139;28;20213;-55
2021/04/18 05:09:58;;;;;;;2.07;1.50;;;22.70;28.90;;;;;;5089287;28;20683;-56
2021/04/18 05:12:24;;;;;;;1.93;1.50;;;22.70;28.80;;;;;;5088575;28;20255;-53
2021/04/18 05:14:50;;;;;;;1.97;1.70;;;22.60;29.40;;;;;;5092221;28;20193;-55
2021/04/18 05:17:16;;;;;;;1.83;1.63;;;22.70;28.80;;;;;;5091174;28;20532;-55
2021/04/18 05:19:42;;;;;;;2.10;1.80;;;22.70;28.80;;;;;;5092044;28;20268;-54
2021/04/18 05:22:08;;;;;;;1.30;1.30;;;22.70;28.80;;;;;;5091420;28;20291;-58
2021/04/18 05:24:33;;;;;;;2.27;1.63;;;22.70;28.80;;;;;;5093300;28;20668;-54
2021/04/18 05:26:59;;;;;;;1.50;1.40;;;22.70;28.80;;;;;;5091137;28;20223;-56
2021/04/18 05:29:26;;;;;;;1.90;1.40;;;22.70;28.80;;;;;;5092233;28;20204;-57
2021/04/18 05:31:51;;;;;;;1.50;1.40;;;22.70;28.80;;;;;;5091497;28;20587;-57
2021/04/18 05:34:17;;;;;;;1.60;1.50;;;22.70;28.80;;;;;;5093188;28;20212;-56
2021/04/18 05:36:43;;;;;;;1.80;1.40;;;22.60;28.80;;;;;;5090821;28;20224;-56
2021/04/18 05:39:09;;;;;;;1.40;1.30;;;22.70;28.80;;;;;;5092081;28;20218;-57
2021/04/18 05:41:35;;;;;;;1.90;1.70;;;22.60;28.80;;;;;;5090431;28;20200;-55
2021/04/18 05:44:01;;;;;;;1.50;1.40;;;22.60;28.80;;;;;;5091428;28;20203;-54
2021/04/18 05:46:27;;;;;;;2.70;1.77;;;22.70;28.80;;;;;;5092084;28;20243;-56
2021/04/18 05:48:53;;;;;;;1.60;1.50;;;22.60;28.80;;;;;;5091256;28;20200;-57
2021/04/18 05:51:19;;;;;;;1.40;1.30;;;22.70;28.80;;;;;;5092490;28;20277;-52
2021/04/18 05:53:45;;;;;;;1.50;1.40;;;22.60;28.80;;;;;;5091950;28;20204;-57
2021/04/18 05:56:11;;;;;;;1.57;1.47;;;22.70;28.90;;;;;;5091321;28;20246;-57
2021/04/18 05:58:37;;;;;;;1.73;1.50;;;22.70;28.90;;;;;;5083663;28;20223;-54
2021/04/18 06:01:03;;;;;;;2.43;1.70;;;22.60;28.80;;;;;;5091084;28;20576;-56
2021/04/18 06:03:29;;;;;;;1.70;1.60;;;22.70;28.90;;;;;;5092638;28;20204;-57
2021/04/18 06:05:55;;;;;;;1.80;1.70;;;22.70;28.90;;;;;;5091899;28;20234;-59
2021/04/18 06:08:21;;;;;;;1.60;1.50;;;22.70;28.90;;;;;;5091086;28;20204;-58
2021/04/18 06:10:47;;;;;;;2.03;1.60;;;22.70;28.90;;;;;;5089371;28;20675;-57
2021/04/18 06:13:13;;;;;;;1.77;1.67;;;22.70;28.80;;;;;;5083240;28;20334;-55
2021/04/18 06:15:39;;;;;;;1.47;1.37;;;22.60;28.80;;;;;;5083083;28;20628;-54
2021/04/18 06:18:05;;;;;;;1.50;1.40;;;22.70;28.80;;;;;;5091235;28;20200;-58
2021/04/18 06:20:31;;;;;;;1.90;1.80;;;22.70;28.80;;;;;;5090485;28;20246;-57
2021/04/18 06:22:57;;;;;;;2.23;1.50;;;22.70;28.80;;;;;;5091679;28;20204;-57
2021/04/18 06:25:23;;;;;;;1.70;1.60;;;22.70;28.90;;;;;;5090832;28;20200;-57
2021/04/18 06:27:49;;;;;;;1.97;1.60;;;22.60;28.80;;;;;;5090950;28;20700;-56
2021/04/18 06:30:15;;;;;;;1.77;1.67;;;22.60;28.80;;;;;;5082072;28;20203;-56
2021/04/18 06:32:41;;;;;;;1.80;1.70;;;22.60;28.80;;;;;;5091266;28;20231;-53
2021/04/18 06:35:07;;;;;;;1.60;1.50;;;22.60;28.80;;;;;;5090266;28;20215;-53
2021/04/18 06:37:33;;;;;;;1.53;1.43;;;22.70;28.80;;;;;;5091286;28;20216;-57
2021/04/18 06:39:59;;;;;;;2.10;1.60;;;22.70;28.90;;;;;;5102870;22;20684;-59
2021/04/18 06:42:25;;;;;;;1.70;1.60;;;22.70;28.90;;;;;;5085974;28;20222;-59
2021/04/18 06:44:51;;;;;;;1.70;1.60;;;22.70;28.80;;;;;;5080799;28;20202;-59
2021/04/18 06:47:16;;;;;;;1.60;1.50;;;22.70;28.80;;;;;;5069945;28;20229;-60
2021/04/18 06:49:42;;;;;;;1.57;1.47;;;22.70;28.80;;;;;;5076639;28;20792;-60
2021/04/18 06:52:08;;;;;;;2.17;1.60;;;22.70;28.90;;;;;;5085421;28;20231;-60
2021/04/18 06:54:34;;;;;;;1.40;1.30;;;22.70;28.90;;;;;;5075119;28;20205;-60
2021/04/18 06:57:00;;;;;;;1.43;1.33;;;22.70;28.80;;;;;;5071055;28;20243;-60
2021/04/18 06:59:27;;;;;;;1.73;1.63;;;22.70;28.90;;;;;;5068184;28;20212;-61
2021/04/18 07:01:53;;;;;;;3.27;1.80;;;22.70;29.00;;;;;;5068804;28;20205;-59
2021/04/18 07:04:19;;;;;;;3.07;1.50;;;22.70;29.40;;;;;;5069482;28;20257;-58
2021/04/18 07:06:45;;;;;;;2.80;1.40;;;22.70;29.30;;;;;;5063427;28;20237;-59
2021/04/18 07:09:11;;;;;;;2.13;1.30;;;22.70;29.20;;;;;;5059110;28;20677;-58
2021/04/18 07:11:37;;;;;;;2.87;1.60;;;22.70;29.10;;;;;;5057246;28;20278;-58
2021/04/18 07:14:03;;;;;;;2.23;1.50;;;22.70;29.10;;;;;;5060618;28;20212;-58
2021/04/18 07:16:30;;;;;;;1.75;1.45;;;22.70;29.00;;;;;;5064752;28;20223;-59
2021/04/18 07:18:57;;;;;;;3.20;1.47;;;22.70;28.90;;;;;;5075510;28;20580;-62
2021/04/18 07:21:23;;;;;;;5.77;1.60;;;22.70;29.20;;;;;;5079570;28;20216;-61
2021/04/18 07:23:49;;;;;;;3.43;1.87;;;22.70;29.50;;;;;;5070707;28;20266;-56
2021/04/18 07:26:15;;;;;;;3.85;1.90;;;22.70;29.70;;;;;;5069831;28;20759;-61
2021/04/18 07:28:41;;;;;;;6.97;2.00;;;22.70;30.00;;;;;;5070761;28;20204;-61
2021/04/18 07:31:07;;;;;;;4.83;1.80;;;22.70;30.30;;;;;;5070759;28;20278;-55
2021/04/18 07:33:33;;;;;;;3.07;1.63;;;22.70;31.10;;;;;;5089408;28;20675;-59
2021/04/18 07:35:59;;;;;;;5.03;1.67;;;22.70;30.70;;;;;;5078176;28;20273;-65
2021/04/18 07:38:25;;;;;;;2.30;1.90;;;22.70;30.20;;;;;;5062320;28;20208;-56
2021/04/18 07:40:51;;;;;;;5.53;2.10;;;22.70;30.40;;;;;;5063969;28;20254;-55
2021/04/18 07:43:18;;;;;;;6.53;2.00;;;22.70;32.30;;;;;;5069315;28;20201;-57
2021/04/18 07:45:44;;;;;;;6.13;2.43;;;22.70;32.90;;;;;;5069451;28;20248;-57
2021/04/18 07:48:10;;;;;;;6.57;2.37;;;22.70;34.00;;;;;;5076251;28;20192;-55
2021/04/18 07:50:36;;;;;;;8.47;3.37;;;22.70;35.70;;;;;;5076736;28;20566;-50
2021/04/18 07:53:02;;;;;;;6.07;2.47;;;22.70;35.90;;;;;;5068393;28;20205;-57
2021/04/18 07:55:28;;;;;;;4.90;2.37;;;22.60;36.50;;;;;;5068102;28;20236;-54
2021/04/18 07:57:54;;;;;;;4.30;2.50;;;22.60;36.80;;;;;;5074813;28;20242;-60
2021/04/18 08:00:20;;;;;;;5.40;2.30;;;22.60;36.30;;;;;;5083724;28;20197;-57
2021/04/18 08:02:46;;;;;;;12.63;7.80;;;22.60;36.30;;;;;;5069663;28;20203;-61
2021/04/18 08:05:12;;;;;;;10.97;9.90;;;22.20;29.90;;;;;;5069958;28;20263;-60
2021/04/18 08:07:38;;;;;;;11.63;10.50;;;19.60;29.50;;;;;;5071228;28;20211;-61
2021/04/18 08:10:04;;;;;;;9.50;8.60;;;18.90;32.40;;;;;;5082493;28;20208;-61
2021/04/18 08:12:30;;;;;;;9.47;7.43;;;19.90;31.20;;;;;;5066393;28;20248;-60
2021/04/18 08:14:56;;;;;;;7.70;6.03;;;20.70;32.90;;;;;;5069442;28;20216;-60
2021/04/18 08:17:21;;;;;;;6.40;5.77;;;21.10;33.40;;;;;;5069983;28;20270;-61
2021/04/18 08:19:47;;;;;;;6.40;5.33;;;21.40;33.10;;;;;;5072206;28;20297;-61
2021/04/18 08:22:13;;;;;;;7.20;5.23;;;21.60;32.60;;;;;;5068946;28;20781;-60
2021/04/18 08:24:39;;;;;;;5.73;5.23;;;21.70;32.10;;;;;;5089665;28;20205;-60
2021/04/18 08:27:06;;;;;;;5.97;5.00;;;21.80;31.60;;;;;;5074047;28;20249;-61
2021/04/18 08:29:32;;;;;;;5.87;5.30;;;21.90;31.70;;;;;;5060712;28;20206;-61
2021/04/18 08:31:57;;;;;;;6.23;5.60;;;21.90;31.40;;;;;;5068143;28;20662;-60
2021/04/18 08:34:23;;;;;;;5.37;4.83;;;22.00;31.60;;;;;;5069406;28;20260;-61
2021/04/18 08:36:49;;;;;;;5.33;4.83;;;22.00;31.40;;;;;;5081695;28;20227;-63
2021/04/18 08:39:15;;;;;;;5.47;4.97;;;22.00;31.70;;;;;;5069991;28;20218;-61
2021/04/18 08:41:41;;;;;;;5.53;4.80;;;22.10;31.60;;;;;;5066205;28;20230;-63
2021/04/18 08:44:07;;;;;;;5.67;5.10;;;22.10;32.30;;;;;;5049674;28;20568;-63
2021/04/18 08:46:33;;;;;;;5.43;4.73;;;22.20;30.90;;;;;;5059688;28;20247;-65
2021/04/18 08:48:59;;;;;;;6.03;5.53;;;22.20;30.10;;;;;;5052114;28;20722;-62
2021/04/18 08:51:25;;;;;;;5.93;5.37;;;22.20;29.90;;;;;;5066096;28;20242;-64
2021/04/18 08:53:51;;;;;;;5.80;5.30;;;22.20;29.70;;;;;;5074283;28;20200;-65
2021/04/18 08:56:17;;;;;;;5.60;5.10;;;22.20;29.70;;;;;;5065987;28;20303;-62
2021/04/18 08:58:43;;;;;;;9.10;5.93;;;22.20;29.50;;;;;;5063153;28;20193;-62
2021/04/18 09:01:09;;;;;;;6.00;5.50;;;22.20;29.90;;;;;;5063933;28;20204;-61
2021/04/18 09:03:35;;;;;;;6.50;5.80;;;22.30;29.60;;;;;;5063406;28;20208;-60
2021/04/18 09:06:01;;;;;;;6.50;5.90;;;22.20;29.50;;;;;;5063970;28;20213;-61
2021/04/18 09:08:27;;;;;;;7.37;6.67;;;22.20;29.50;;;;;;5070962;28;20344;-63
2021/04/18 09:10:53;;;;;;;9.80;6.90;;;22.30;29.50;;;;;;5059100;28;20247;-58
2021/04/18 09:13:19;;;;;;;7.60;6.57;;;22.20;29.50;;;;;;5056388;28;20341;-60
2021/04/18 09:15:45;;;;;;;8.47;6.43;;;22.30;29.70;;;;;;5071046;28;20228;-54
2021/04/18 09:18:11;;;;;;;6.90;6.27;;;22.30;30.10;;;;;;5066597;28;20205;-58
2021/04/18 09:20:37;;;;;;;7.00;6.40;;;22.30;30.00;;;;;;5061857;28;20200;-59
2021/04/18 09:23:03;;;;;;;9.43;7.70;;;22.30;30.00;;;;;;5053824;28;20687;-59
2021/04/18 09:25:29;;;;;;;7.67;6.90;;;22.20;30.00;;;;;;5063704;28;20232;-58
2021/04/18 09:27:55;;;;;;;8.07;7.23;;;22.20;30.10;;;;;;5063048;28;20636;-52
2021/04/18 09:30:21;;;;;;;8.03;6.70;;;22.20;30.10;;;;;;5054988;28;20200;-49
2021/04/18 09:32:48;;;;;;;7.67;6.83;;;22.10;30.40;;;;;;5072868;28;20314;-54
2021/04/18 09:35:14;;;;;;;7.30;6.63;;;22.10;30.00;;;;;;5056136;28;20216;-55
2021/04/18 09:37:40;;;;;;;7.17;6.47;;;22.10;30.60;;;;;;5065999;28;20203;-50
2021/04/18 09:40:06;;;;;;;7.83;7.13;;;22.10;30.20;;;;;;5068718;28;20223;-43
2021/04/18 09:42:32;;;;;;;7.97;7.23;;;22.10;30.00;;;;;;5062910;28;20562;-54
2021/04/18 09:44:58;;;;;;;7.53;6.43;;;22.10;29.90;;;;;;5063236;28;20220;-53
2021/04/18 09:47:24;;;;;;;7.90;7.20;;;22.20;30.00;;;;;;5066782;28;20268;-53
2021/04/18 09:49:50;;;;;;;7.77;7.10;;;22.20;29.80;;;;;;5055974;28;20203;-54
2021/04/18 09:52:16;;;;;;;9.37;7.70;;;22.10;29.70;;;;;;5070197;28;20270;-52
2021/04/18 09:54:42;;;;;;;8.87;8.07;;;22.10;29.50;;;;;;5057541;28;20227;-52
2021/04/18 09:57:08;;;;;;;8.00;7.30;;;22.20;29.30;;;;;;5052109;28;20204;-50
2021/04/18 09:59:34;;;;;;;8.93;8.23;;;22.10;29.20;;;;;;5052310;28;20286;-53
2021/04/18 10:02:01;;;;;;;8.97;8.17;;;22.10;29.00;;;;;;5052178;28;20631;-53
2021/04/18 10:04:27;;;;;;;8.63;7.93;;;22.20;29.00;;;;;;5052203;28;20245;-51
2021/04/18 10:06:54;;;;;;;8.67;7.87;;;22.10;28.80;;;;;;5051722;28;20235;-53
2021/04/18 10:09:20;;;;;;;8.83;8.13;;;22.10;28.80;;;;;;5065032;28;20250;-51
2021/04/18 10:11:46;;;;;;;9.37;8.67;;;22.10;28.70;;;;;;5053500;28;20248;-50
2021/04/18 10:14:12;;;;;;;9.10;8.30;;;22.10;28.50;;;;;;5064637;28;20212;-47
2021/04/18 10:16:38;;;;;;;8.70;7.90;;;22.10;28.50;;;;;;5071607;28;20679;-49
2021/04/18 10:19:04;;;;;;;8.90;8.10;;;22.10;28.40;;;;;;5065351;28;20200;-51
2021/04/18 10:21:30;;;;;;;8.23;7.53;;;22.10;28.40;;;;;;5059034;28;20204;-45
2021/04/18 10:23:56;;;;;;;7.43;6.80;;;22.20;28.60;;;;;;5059088;28;20643;-51
2021/04/18 10:26:22;;;;;;;8.10;7.40;;;22.20;28.40;;;;;;5067497;28;20220;-48
2021/04/18 10:28:48;;;;;;;7.83;7.13;;;22.20;28.30;;;;;;5054524;28;20522;-47
2021/04/18 10:31:14;;;;;;;8.23;7.30;;;22.20;28.30;;;;;;5061661;28;20311;-53
2021/04/18 10:33:40;;;;;;;8.57;7.80;;;22.20;28.20;;;;;;5063155;28;20209;-48
2021/04/18 10:36:06;;;;;;;8.13;7.47;;;22.10;28.30;;;;;;5063172;28;20219;-51
2021/04/18 10:38:32;;;;;;;7.80;7.20;;;22.20;28.40;;;;;;5069653;28;20827;-50
2021/04/18 10:40:58;;;;;;;7.53;6.93;;;22.20;28.20;;;;;;5062249;28;20210;-46
2021/04/18 10:43:24;;;;;;;7.77;7.17;;;22.20;28.30;;;;;;5064890;28;20216;-51
2021/04/18 10:45:50;;;;;;;8.20;7.50;;;22.20;28.30;;;;;;5058555;28;20237;-49
2021/04/18 10:48:16;;;;;;;7.33;6.63;;;22.20;28.30;;;;;;5058875;28;20205;-45
2021/04/18 10:50:42;;;;;;;7.37;6.67;;;22.20;28.30;;;;;;5055799;28;20209;-51
2021/04/18 10:53:08;;;;;;;7.07;6.40;;;22.30;28.50;;;;;;5067227;28;20513;-49
2021/04/18 10:55:34;;;;;;;6.67;5.63;;;22.50;29.90;;;;;;5060214;28;20228;-54
2021/04/18 10:58:00;;;;;;;5.90;5.10;;;22.60;30.00;;;;;;5058785;28;20259;-43
2021/04/18 11:00:27;;;;;;;5.60;5.10;;;22.70;30.20;;;;;;5056057;28;20251;-46
2021/04/18 11:02:53;;;;;;;6.37;5.87;;;22.70;29.90;;;;;;5060915;28;20585;-45
2021/04/18 11:05:19;;;;;;;7.47;6.87;;;22.70;30.10;;;;;;5066918;28;20374;-43
2021/04/18 11:07:45;;;;;;;9.20;8.37;;;22.50;29.90;;;;;;5059275;28;20303;-46
2021/04/18 11:10:11;;;;;;;8.60;7.90;;;22.40;29.30;;;;;;5062460;28;20668;-43
2021/04/18 11:12:37;;;;;;;9.57;8.73;;;22.40;29.20;;;;;;5063147;28;20302;-42
2021/04/18 11:15:03;;;;;;;8.83;8.00;;;22.30;29.00;;;;;;5054854;28;20223;-45
2021/04/18 11:17:29;;;;;;;6.23;5.70;;;22.40;30.00;;;;;;5056073;28;20615;-46
2021/04/18 11:19:55;;;;;;;5.87;5.37;;;22.50;30.00;;;;;;5065017;28;20249;-46
2021/04/18 11:22:21;;;;;;;7.27;6.00;;;22.60;30.40;;;;;;5066541;28;20202;-45
2021/04/18 11:24:47;;;;;;;6.40;5.80;;;22.70;30.90;;;;;;5065092;28;20219;-44
2021/04/18 11:27:13;;;;;;;6.60;5.97;;;22.80;31.40;;;;;;5064734;28;20664;-43
2021/04/18 11:29:40;;;;;;;6.70;6.07;;;22.80;31.80;;;;;;5050474;28;20220;-49
2021/04/18 11:32:06;;;;;;;6.73;6.13;;;22.80;31.40;;;;;;5056456;28;20278;-46
2021/04/18 11:34:32;;;;;;;6.97;6.27;;;22.80;32.10;;;;;;5055509;28;20220;-42
2021/04/18 11:36:58;;;;;;;6.73;6.03;;;22.90;33.30;;;;;;5052943;28;20568;-46
2021/04/18 11:39:24;;;;;;;6.43;5.93;;;22.90;33.90;;;;;;5060338;28;20202;-49
2021/04/18 11:41:50;;;;;;;6.40;5.90;;;22.90;34.50;;;;;;5056359;28;20197;-43
2021/04/18 11:44:16;;;;;;;6.30;5.80;;;23.00;34.70;;;;;;5065469;28;20239;-46
2021/04/18 11:46:42;;;;;;;6.03;5.43;;;23.00;34.80;;;;;;5053039;28;20208;-49
2021/04/18 11:49:08;;;;;;;6.07;5.57;;;23.00;35.40;;;;;;5060187;28;20216;-49
2021/04/18 11:51:34;;;;;;;6.10;5.50;;;23.00;35.60;;;;;;5072840;28;20225;-47
2021/04/18 11:54:00;;;;;;;5.67;5.17;;;23.00;36.00;;;;;;5061638;28;20229;-47
2021/04/18 11:56:26;;;;;;;9.20;8.30;;;23.00;34.40;;;;;;5078705;28;20223;-44
2021/04/18 11:58:52;;;;;;;9.20;8.50;;;22.70;30.10;;;;;;5060800;28;20777;-48
2021/04/18 12:01:18;;;;;;;9.33;8.57;;;22.50;30.90;;;;;;5068509;28;20282;-47
2021/04/18 12:03:44;;;;;;;10.33;9.40;;;22.30;28.70;;;;;;5068041;28;20203;-51
2021/04/18 12:06:10;;;;;;;8.37;7.67;;;22.10;28.30;;;;;;5065078;28;20207;-43
2021/04/18 12:08:36;;;;;;;8.23;7.43;;;22.10;27.50;;;;;;5062505;28;20559;-43
2021/04/18 12:11:02;;;;;;;6.33;5.83;;;22.30;27.60;;;;;;5062442;28;20209;-42
2021/04/18 12:13:27;;;;;;;5.30;4.80;;;22.50;28.20;;;;;;5062710;28;20265;-45
2021/04/18 12:15:53;;;;;;;6.00;5.50;;;22.70;29.40;;;;;;5067556;28;20197;-42
2021/04/18 12:18:19;;;;;;;5.33;4.93;;;22.80;30.00;;;;;;5060088;28;20684;-46
2021/04/18 12:20:45;;;;;;;5.50;5.00;;;23.00;30.20;;;;;;5061487;28;20211;-42
2021/04/18 12:23:12;;;;;;;4.93;4.60;;;23.00;30.20;;;;;;5066503;28;20629;-47
2021/04/18 12:25:38;;;;;;;4.77;4.43;;;23.10;30.30;;;;;;5062987;28;20228;-42
2021/04/18 12:28:04;;;;;;;4.80;4.40;;;23.10;30.60;;;;;;5060150;28;20220;-43
2021/04/18 12:30:29;;;;;;;4.97;4.53;;;23.10;30.60;;;;;;5058967;28;20197;-45
2021/04/18 12:32:55;;;;;;;4.60;3.80;;;23.10;30.70;;;;;;5059239;28;20647;-42
2021/04/18 12:35:21;;;;;;;4.30;3.90;;;23.10;30.70;;;;;;5074299;28;20224;-42
2021/04/18 12:37:47;;;;;;;3.90;3.60;;;23.10;30.80;;;;;;5071954;28;20292;-42